PWSweather.com
Personal Weather Stations
Station Observations
KCTCOLEB1
Sandy Brook, Colebrook, CT 06021

Sandy BrookColebrook, CT 06021

Lat: 42.0018, Lon: -73.0825

Elevation: 935

Station Type: Davis Vantage Pro2 + Solar + UV

Latest ConditionsUpdated 11:00:00 AM EDT Wednesday, Jun 20, 2018
Currently Today's Max Today's Min Today's Average
Temperature 70.7°F21.5°C 70.9°F21.6°C 50.6°F10.3°C 56.5°F13.6°C
Dew Point 56.1°F13.4°C 58.7°F14.8°C 49.1°F9.5°C 53.5°F11.9°C
Winds 1.2 mph NNE1.9 kmh NNE 1.2 mph -1.9 kmh - - 0.0 mph 0.0 kmh
Wind Gusts 3.5 mph5.6 kmh 3.5 mph5.6 kmh - -
Humidity 60% 98% 59% 90%
Pressure 29.86 in1011.2 mb 29.91 in1012.9 mb 29.86 in1011.2 mb -
Hour Temp Dew Point Humidity Winds Wind Gusts Pressure Precip Precip Rate Daily Precip Total
11:00 AM 70.7°F21.5°C 56.1°F13.4°C 60% 1.2 mph NNE1.9 kmh NNE 3.5 mph5.6 kmh 29.86 in1011.2 mb - 0.00 in0.0 mm 0.00 in0.0 mm
10:50 AM 70.9°F21.6°C 55.9°F13.3°C 59% 1.2 mph N1.9 kmh N 3.5 mph5.6 kmh 29.86 in1011.2 mb - 0.00 in0.0 mm 0.00 in0.0 mm
10:40 AM 69.2°F20.7°C 55.2°F12.9°C 61% Calm Calm 1.2 mph1.9 kmh 29.87 in1011.5 mb - 0.00 in0.0 mm 0.00 in0.0 mm
10:30 AM 67.8°F19.9°C 56.5°F13.6°C 67% Calm Calm -- 29.87 in1011.5 mb - 0.00 in0.0 mm 0.00 in0.0 mm
10:20 AM 67.2°F19.6°C 55.5°F13.1°C 66% Calm Calm -- 29.86 in1011.2 mb - 0.00 in0.0 mm 0.00 in0.0 mm
10:10 AM 67.1°F19.5°C 56.2°F13.4°C 68% Calm Calm -- 29.87 in1011.5 mb - 0.00 in0.0 mm 0.00 in0.0 mm
10:00 AM 66.8°F19.3°C 57.9°F14.4°C 73% Calm Calm -- 29.87 in1011.5 mb - 0.00 in0.0 mm 0.00 in0.0 mm
09:50 AM 66.2°F19.0°C 58.4°F14.7°C 76% Calm Calm -- 29.88 in1011.9 mb - 0.00 in0.0 mm 0.00 in0.0 mm
09:40 AM 65.0°F18.3°C 58.7°F14.8°C 80% Calm Calm -- 29.88 in1011.9 mb - 0.00 in0.0 mm 0.00 in0.0 mm
09:30 AM 63.8°F17.7°C 58.5°F14.7°C 83% Calm Calm -- 29.88 in1011.9 mb - 0.00 in0.0 mm 0.00 in0.0 mm
09:20 AM 62.2°F16.8°C 58.3°F14.6°C 87% Calm Calm -- 29.89 in1012.2 mb - 0.00 in0.0 mm 0.00 in0.0 mm
09:10 AM 60.9°F16.1°C 57.9°F14.4°C 90% Calm Calm -- 29.89 in1012.2 mb - 0.00 in0.0 mm 0.00 in0.0 mm
09:00 AM 60.0°F15.6°C 58.5°F14.7°C 95% Calm Calm -- 29.89 in1012.2 mb - 0.00 in0.0 mm 0.00 in0.0 mm
08:50 AM 59.4°F15.2°C 58.5°F14.7°C 97% Calm Calm -- 29.89 in1012.2 mb - 0.00 in0.0 mm 0.00 in0.0 mm
08:40 AM 58.5°F14.7°C 58.0°F14.4°C 98% Calm Calm -- 29.89 in1012.2 mb - 0.00 in0.0 mm 0.00 in0.0 mm
08:30 AM 57.6°F14.2°C 57.0°F13.9°C 98% Calm Calm -- 29.89 in1012.2 mb - 0.00 in0.0 mm 0.00 in0.0 mm
08:20 AM 56.3°F13.5°C 55.4°F13.0°C 97% Calm Calm -- 29.89 in1012.2 mb - 0.00 in0.0 mm 0.00 in0.0 mm
08:10 AM 55.7°F13.2°C 54.8°F12.7°C 97% Calm Calm -- 29.90 in1012.5 mb - 0.00 in0.0 mm 0.00 in0.0 mm
08:00 AM 55.1°F12.8°C 54.3°F12.4°C 97% Calm Calm -- 29.90 in1012.5 mb - 0.00 in0.0 mm 0.00 in0.0 mm
07:50 AM 54.5°F12.5°C 53.6°F12.0°C 97% Calm Calm -- 29.91 in1012.9 mb - 0.00 in0.0 mm 0.00 in0.0 mm
07:40 AM 54.0°F12.2°C 53.2°F11.8°C 97% Calm Calm -- 29.91 in1012.9 mb - 0.00 in0.0 mm 0.00 in0.0 mm
07:30 AM 53.5°F11.9°C 52.7°F11.5°C 97% Calm Calm -- 29.90 in1012.5 mb - 0.00 in0.0 mm 0.00 in0.0 mm
07:20 AM 53.0°F11.7°C 52.2°F11.2°C 97% Calm Calm -- 29.90 in1012.5 mb - 0.00 in0.0 mm 0.00 in0.0 mm
07:10 AM 52.4°F11.3°C 51.6°F10.9°C 97% Calm Calm -- 29.90 in1012.5 mb - 0.00 in0.0 mm 0.00 in0.0 mm
07:00 AM 51.8°F11.0°C 51.0°F10.6°C 97% Calm Calm -- 29.90 in1012.5 mb - 0.00 in0.0 mm 0.00 in0.0 mm
06:50 AM 51.3°F10.7°C 50.2°F10.1°C 96% Calm Calm -- 29.90 in1012.5 mb - 0.00 in0.0 mm 0.00 in0.0 mm
06:40 AM 50.9°F10.5°C 49.8°F9.9°C 96% Calm Calm -- 29.89 in1012.2 mb - 0.00 in0.0 mm 0.00 in0.0 mm
06:30 AM 50.7°F10.4°C 49.6°F9.8°C 96% Calm Calm -- 29.89 in1012.2 mb - 0.00 in0.0 mm 0.00 in0.0 mm
06:20 AM 50.6°F10.3°C 49.2°F9.6°C 95% Calm Calm -- 29.89 in1012.2 mb - 0.00 in0.0 mm 0.00 in0.0 mm
06:10 AM 50.6°F10.3°C 49.2°F9.6°C 95% Calm Calm -- 29.89 in1012.2 mb - 0.00 in0.0 mm 0.00 in0.0 mm
06:00 AM 50.7°F10.4°C 49.3°F9.6°C 95% Calm Calm -- 29.89 in1012.2 mb - 0.00 in0.0 mm 0.00 in0.0 mm
05:50 AM 50.8°F10.4°C 49.1°F9.5°C 94% Calm Calm -- 29.89 in1012.2 mb - 0.00 in0.0 mm 0.00 in0.0 mm
05:40 AM 51.0°F10.6°C 49.3°F9.6°C 94% Calm Calm -- 29.88 in1011.9 mb - 0.00 in0.0 mm 0.00 in0.0 mm
05:30 AM 51.2°F10.7°C 49.5°F9.7°C 94% Calm Calm -- 29.88 in1011.9 mb - 0.00 in0.0 mm 0.00 in0.0 mm
05:20 AM 51.4°F10.8°C 49.7°F9.8°C 94% Calm Calm -- 29.88 in1011.9 mb - 0.00 in0.0 mm 0.00 in0.0 mm
05:10 AM 51.6°F10.9°C 49.9°F9.9°C 94% Calm Calm -- 29.88 in1011.9 mb - 0.00 in0.0 mm 0.00 in0.0 mm
05:00 AM 51.9°F11.1°C 50.2°F10.1°C 94% Calm Calm -- 29.87 in1011.5 mb - 0.00 in0.0 mm 0.00 in0.0 mm
04:50 AM 52.1°F11.2°C 50.4°F10.2°C 94% Calm Calm -- 29.87 in1011.5 mb - 0.00 in0.0 mm 0.00 in0.0 mm
04:40 AM 52.3°F11.3°C 50.6°F10.3°C 94% Calm Calm -- 29.86 in1011.2 mb - 0.00 in0.0 mm 0.00 in0.0 mm
04:30 AM 52.6°F11.4°C 50.9°F10.5°C 94% Calm Calm -- 29.87 in1011.5 mb - 0.00 in0.0 mm 0.00 in0.0 mm
04:20 AM 52.8°F11.6°C 51.1°F10.6°C 94% Calm Calm -- 29.86 in1011.2 mb - 0.00 in0.0 mm 0.00 in0.0 mm
04:10 AM 53.0°F11.7°C 51.3°F10.7°C 94% Calm Calm -- 29.86 in1011.2 mb - 0.00 in0.0 mm 0.00 in0.0 mm
04:00 AM 53.3°F11.8°C 51.6°F10.9°C 94% Calm Calm -- 29.86 in1011.2 mb - 0.00 in0.0 mm 0.00 in0.0 mm
03:50 AM 53.6°F12.0°C 51.9°F11.1°C 94% Calm Calm -- 29.86 in1011.2 mb - 0.00 in0.0 mm 0.00 in0.0 mm
03:40 AM 53.9°F12.2°C 51.9°F11.1°C 93% Calm Calm -- 29.86 in1011.2 mb - 0.00 in0.0 mm 0.00 in0.0 mm
03:30 AM 54.2°F12.3°C 52.5°F11.4°C 94% Calm Calm -- 29.86 in1011.2 mb - 0.00 in0.0 mm 0.00 in0.0 mm
03:20 AM 54.4°F12.4°C 52.7°F11.5°C 94% Calm Calm -- 29.86 in1011.2 mb - 0.00 in0.0 mm 0.00 in0.0 mm
03:10 AM 54.6°F12.6°C 52.9°F11.6°C 94% Calm Calm -- 29.86 in1011.2 mb - 0.00 in0.0 mm 0.00 in0.0 mm
03:00 AM 54.8°F12.7°C 53.1°F11.7°C 94% Calm Calm -- 29.86 in1011.2 mb - 0.00 in0.0 mm 0.00 in0.0 mm
02:50 AM 55.0°F12.8°C 53.0°F11.7°C 93% Calm Calm -- 29.86 in1011.2 mb - 0.00 in0.0 mm 0.00 in0.0 mm
02:40 AM 55.1°F12.8°C 53.1°F11.7°C 93% Calm Calm -- 29.86 in1011.2 mb - 0.00 in0.0 mm 0.00 in0.0 mm
02:30 AM 55.3°F12.9°C 53.3°F11.8°C 93% Calm Calm -- 29.86 in1011.2 mb - 0.00 in0.0 mm 0.00 in0.0 mm
02:20 AM 55.4°F13.0°C 53.4°F11.9°C 93% Calm Calm -- 29.86 in1011.2 mb - 0.00 in0.0 mm 0.00 in0.0 mm
02:10 AM 55.6°F13.1°C 53.6°F12.0°C 93% Calm Calm -- 29.86 in1011.2 mb - 0.00 in0.0 mm 0.00 in0.0 mm
02:00 AM 55.8°F13.2°C 53.8°F12.1°C 93% Calm Calm -- 29.86 in1011.2 mb - 0.00 in0.0 mm 0.00 in0.0 mm
01:50 AM 56.0°F13.3°C 54.0°F12.2°C 93% Calm Calm -- 29.87 in1011.5 mb - 0.00 in0.0 mm 0.00 in0.0 mm
01:40 AM 56.1°F13.4°C 54.1°F12.3°C 93% Calm Calm 1.2 mph1.9 kmh 29.87 in1011.5 mb - 0.00 in0.0 mm 0.00 in0.0 mm
01:30 AM 56.2°F13.4°C 54.2°F12.3°C 93% Calm Calm -- 29.87 in1011.5 mb - 0.00 in0.0 mm 0.00 in0.0 mm
01:20 AM 56.3°F13.5°C 54.3°F12.4°C 93% Calm Calm -- 29.87 in1011.5 mb - 0.00 in0.0 mm 0.00 in0.0 mm
01:10 AM 56.5°F13.6°C 54.2°F12.3°C 92% Calm Calm -- 29.87 in1011.5 mb - 0.00 in0.0 mm 0.00 in0.0 mm
01:00 AM 56.6°F13.7°C 54.3°F12.4°C 92% Calm Calm -- 29.87 in1011.5 mb - 0.00 in0.0 mm 0.00 in0.0 mm
12:50 AM 56.8°F13.8°C 54.5°F12.5°C 92% Calm Calm -- 29.87 in1011.5 mb - 0.00 in0.0 mm 0.00 in0.0 mm
12:40 AM 57.0°F13.9°C 54.7°F12.6°C 92% Calm Calm -- 29.87 in1011.5 mb - 0.00 in0.0 mm 0.00 in0.0 mm
12:30 AM 57.2°F14.0°C 54.6°F12.6°C 91% Calm Calm -- 29.87 in1011.5 mb - 0.00 in0.0 mm 0.00 in0.0 mm
12:20 AM 57.5°F14.2°C 54.9°F12.7°C 91% Calm Calm -- 29.87 in1011.5 mb - 0.00 in0.0 mm 0.00 in0.0 mm
12:10 AM 57.7°F14.3°C 54.8°F12.7°C 90% Calm Calm -- 29.87 in1011.5 mb - 0.00 in0.0 mm 0.00 in0.0 mm
12:00 AM 57.8°F14.3°C 54.9°F12.7°C 90% Calm Calm -- 29.87 in1011.5 mb - 0.00 in0.0 mm 0.00 in0.0 mm